KMFD

Mansfield Lahm Regional Airport

Mansfield, Ohio, USA
METAR KMFD 241252Z 00000KT 10SM CLR 20/11 A3026 RMK AO2 SLP241 T02000111
Observed Flight Rules
May-24 @ 12:52 UTC (an hour ago) Visual Flight Rules
Visibility Clouds
10 miles
  • Clear skies
Temperatures Readings
Current 20°C / 68°F
Dewpoint 11°C / 52°F
Humidity 56%
Altimeter 30.26" Hg
Pressure 1024.1 hPa
Elevation 395
METAR KMFD 241252Z 00000KT 10SM CLR 20/11 A3026 RMK AO2 SLP241 T02000111
Observed Flight Rules
May-24 @ 12:52 UTC
(an hour ago)
VFR
Clouds
  • Clear skies
Temperature Dewpoint
20°C / 68°F 11°C / 52°F
Humidity Altimeter Pressure
56% 30.26" Hg 1024.1 hPa